createdAt,value
2017-08-21T03:19:17.649Z,99.90
2017-08-21T03:21:46.735Z,99.90
2017-08-21T03:24:15.512Z,99.90
2017-08-21T03:26:43.853Z,99.90
2017-08-21T03:29:12.145Z,99.90
2017-08-21T03:31:42.276Z,99.90
2017-08-21T03:34:10.570Z,99.90
2017-08-21T03:36:38.862Z,99.90
2017-08-21T03:39:07.799Z,99.90
2017-08-21T03:41:36.196Z,99.90
2017-08-21T03:44:04.756Z,99.90
2017-08-21T03:46:33.097Z,99.90
2017-08-21T03:49:02.129Z,99.90
2017-08-21T03:51:31.522Z,99.90
2017-08-21T03:53:59.883Z,99.90
2017-08-21T03:56:28.225Z,99.90
2017-08-21T03:58:56.794Z,99.90
2017-08-21T04:01:25.118Z,99.90
2017-08-21T04:03:54.193Z,99.90
2017-08-21T04:06:23.447Z,99.90
2017-08-21T04:08:52.127Z,99.90
2017-08-21T04:11:21.715Z,99.90
2017-08-21T04:13:50.908Z,99.90
2017-08-21T04:16:19.411Z,99.90
2017-08-21T06:16:10.693Z,99.90
2017-08-21T06:18:39.145Z,99.90
2017-08-21T06:21:07.865Z,99.90
2017-08-21T06:23:36.196Z,99.90
2017-08-21T06:26:05.428Z,99.90
2017-08-21T06:28:34.013Z,99.90
2017-08-21T06:31:02.415Z,99.90
2017-08-21T06:33:32.113Z,99.90
2017-08-21T06:36:01.757Z,99.90
2017-08-21T06:38:31.297Z,99.90
2017-08-21T06:40:59.578Z,99.90
2017-08-21T06:43:28.445Z,99.90
2017-08-21T06:45:57.809Z,99.90
2017-08-21T06:48:26.119Z,99.90
2017-08-21T06:50:55.346Z,99.90
2017-08-21T06:53:24.426Z,99.90
2017-08-21T06:55:53.784Z,99.90
2017-08-21T06:58:23.830Z,99.90
2017-08-21T07:00:52.146Z,99.90
2017-08-21T07:03:21.179Z,99.90
2017-08-21T07:05:50.294Z,99.90
2017-08-21T07:08:18.608Z,99.90
2017-08-21T07:10:47.972Z,99.90
2017-08-21T07:13:16.677Z,99.90
2017-08-21T07:15:45.897Z,99.90
2017-08-21T07:18:14.423Z,99.90
2017-08-21T07:20:44.357Z,99.90
2017-08-21T07:23:13.056Z,99.90
2017-08-21T07:25:42.439Z,99.90
2017-08-21T07:28:11.010Z,99.90
2017-08-21T07:30:39.933Z,99.90
2017-08-21T07:33:09.019Z,99.90
2017-08-21T07:35:38.402Z,99.90
2017-08-21T07:38:06.728Z,99.90
2017-08-21T07:40:35.044Z,99.90
2017-08-21T07:43:03.626Z,99.90
2017-08-21T07:45:32.514Z,99.90
2017-08-21T07:48:01.745Z,99.90
2017-08-21T07:50:30.421Z,99.90
2017-08-21T07:52:59.759Z,99.90
2017-08-21T07:55:29.870Z,99.90
2017-08-21T07:57:58.178Z,99.90
2017-08-21T08:00:27.255Z,99.90
2017-08-21T08:02:56.756Z,99.90
2017-08-21T08:05:25.761Z,99.90
2017-08-21T08:07:54.960Z,99.90
2017-08-21T08:10:23.964Z,99.90
2017-08-21T08:12:52.752Z,99.90
2017-08-21T08:15:21.348Z,99.90
2017-08-21T08:17:50.013Z,99.90
2017-08-21T08:20:19.506Z,99.90
2017-08-21T08:22:47.879Z,99.90
2017-08-21T08:25:17.636Z,99.90
2017-08-21T08:27:47.059Z,99.90
2017-08-21T08:30:17.913Z,99.90
2017-08-21T08:32:47.625Z,99.90
2017-08-21T08:35:16.017Z,99.90
2017-08-21T08:37:45.107Z,99.90
2017-08-21T08:40:13.507Z,99.90
2017-08-21T08:42:41.868Z,99.90
2017-08-21T08:45:10.511Z,99.90
2017-08-21T08:47:39.185Z,99.90
2017-08-21T08:50:08.100Z,99.90
2017-08-21T08:52:39.513Z,99.90
2017-08-21T08:55:07.837Z,99.90
2017-08-21T09:02:38.045Z,97.70
2017-08-21T09:05:07.116Z,98.00
2017-08-21T09:07:35.562Z,98.00
2017-08-21T09:10:04.266Z,98.30
2017-08-21T09:12:32.544Z,98.50
2017-08-21T09:15:01.168Z,97.90
2017-08-21T09:17:30.388Z,97.90
2017-08-21T09:19:59.187Z,97.80
2017-08-21T09:22:28.516Z,95.90
2017-08-21T09:24:56.857Z,96.10
2017-08-21T09:27:26.611Z,97.20
2017-08-21T09:29:54.937Z,97.20
2017-08-21T09:32:23.211Z,96.60
2017-08-21T09:34:52.484Z,97.20
2017-08-21T09:37:20.761Z,97.40
2017-08-21T09:39:50.217Z,95.80
2017-08-21T09:42:19.314Z,95.60
2017-08-21T09:44:47.654Z,95.60
2017-08-21T09:47:17.220Z,94.20
2017-08-21T09:49:45.566Z,94.20
2017-08-21T09:52:14.518Z,94.00
2017-08-21T09:54:42.798Z,93.10
2017-08-21T09:57:12.480Z,94.30
2017-08-21T09:59:41.081Z,94.30
2017-08-21T10:02:09.380Z,96.20
2017-08-21T10:04:37.734Z,98.90
2017-08-21T10:07:06.691Z,98.90
2017-08-21T10:09:35.748Z,99.90
2017-08-21T10:12:04.160Z,99.90
2017-08-21T10:14:32.962Z,99.90
2017-08-21T10:17:02.902Z,99.90
2017-08-21T10:19:31.812Z,99.90
2017-08-21T10:22:00.137Z,99.90
2017-08-21T10:26:58.103Z,99.90
2017-08-21T10:29:26.392Z,94.40
2017-08-21T10:31:55.881Z,93.70
2017-08-21T10:34:24.220Z,92.50
2017-08-21T10:36:53.652Z,99.90
2017-08-21T10:39:21.970Z,99.90
2017-08-21T10:56:49.918Z,99.90
2017-08-21T10:59:18.260Z,91.70
2017-08-21T11:01:47.258Z,84.90
2017-08-21T11:11:46.910Z,99.20
2017-08-21T11:14:16.140Z,99.80
2017-08-21T11:16:46.046Z,94.50
2017-08-21T11:19:16.825Z,94.00
2017-08-21T11:21:46.645Z,85.80
2017-08-21T11:24:15.271Z,78.30
2017-08-21T11:26:43.984Z,69.30
2017-08-21T11:29:14.005Z,61.80
2017-08-21T11:34:12.197Z,61.80
2017-08-21T11:36:41.264Z,61.20
2017-08-21T11:46:38.709Z,99.70
2017-08-21T11:49:07.334Z,85.80
2017-08-21T11:54:06.709Z,58.80
2017-08-21T11:56:35.335Z,57.60
2017-08-21T11:59:04.420Z,73.50
2017-08-21T12:01:33.438Z,62.10
2017-08-21T12:04:02.405Z,60.50
2017-08-21T12:06:30.731Z,58.90
2017-08-21T12:09:00.797Z,67.80
2017-08-21T12:11:29.936Z,67.60
2017-08-21T12:13:59.498Z,71.40
2017-08-21T12:16:28.053Z,77.50
2017-08-21T12:18:57.142Z,87.10
2017-08-21T12:21:26.627Z,90.00
2017-08-21T12:23:54.926Z,90.00
2017-08-21T12:26:23.351Z,91.70
2017-08-21T12:28:52.713Z,88.10
2017-08-21T12:31:21.190Z,83.70
2017-08-21T12:33:49.460Z,83.80
2017-08-21T12:36:19.673Z,81.80
2017-08-21T12:38:47.970Z,82.40
2017-08-21T12:41:17.311Z,78.70
2017-08-21T12:43:47.336Z,79.70
2017-08-21T12:46:15.655Z,79.60
2017-08-21T12:48:43.990Z,82.70
2017-08-21T12:51:12.655Z,84.00
2017-08-21T12:53:42.388Z,93.00
2017-08-21T13:06:11.520Z,78.20
2017-08-21T13:08:41.062Z,61.10
2017-08-21T13:11:10.668Z,53.70
2017-08-21T13:13:38.950Z,54.30
2017-08-21T13:16:07.387Z,53.80
2017-08-21T13:18:36.729Z,55.40
2017-08-21T13:21:05.032Z,55.40
2017-08-21T13:23:33.390Z,59.70
2017-08-21T13:26:01.704Z,63.40
2017-08-21T13:28:30.164Z,66.10
2017-08-21T13:30:58.780Z,70.30
2017-08-21T13:33:28.240Z,94.30
2017-08-21T13:35:56.770Z,94.10
2017-08-21T13:38:25.365Z,92.30
2017-08-21T13:40:55.076Z,67.10
2017-08-21T13:43:23.359Z,67.80
2017-08-21T13:45:52.005Z,64.30
2017-08-21T13:53:20.524Z,88.90
2017-08-21T13:55:48.794Z,88.30
2017-08-21T13:58:17.145Z,75.10
2017-08-21T14:00:45.647Z,83.00
2017-08-21T14:03:15.155Z,97.00
2017-08-21T14:05:44.546Z,96.50
2017-08-21T14:08:13.148Z,94.50
2017-08-21T14:10:42.197Z,99.90
2017-08-21T14:13:10.470Z,99.90
2017-08-21T14:15:38.890Z,99.90
2017-08-21T14:18:07.470Z,99.90
2017-08-21T14:20:35.899Z,99.90
2017-08-21T14:23:04.931Z,99.90
2017-08-21T14:25:33.540Z,99.90
2017-08-21T14:28:01.813Z,99.90
2017-08-21T14:30:30.207Z,99.90
2017-08-21T14:32:58.791Z,99.90
2017-08-21T14:36:01.749Z,99.90
2017-08-21T14:38:31.163Z,99.90
2017-08-21T14:40:59.631Z,99.90
2017-08-21T14:43:28.239Z,99.90
2017-08-21T14:45:56.534Z,99.90
2017-08-21T14:48:24.910Z,99.90
2017-08-21T14:50:54.385Z,99.90
2017-08-21T14:55:54.096Z,99.90
2017-08-21T14:58:22.359Z,99.90
2017-08-21T15:00:52.078Z,99.90
2017-08-21T15:03:20.760Z,94.10
2017-08-21T15:05:49.072Z,90.60
2017-08-21T15:08:17.418Z,83.90
2017-08-21T15:10:45.988Z,77.30
2017-08-21T15:38:13.062Z,96.40
2017-08-21T15:40:41.319Z,96.20
2017-08-21T15:43:09.713Z,91.60
2017-08-21T15:45:38.325Z,92.60
2017-08-21T15:48:06.598Z,93.80
2017-08-21T15:50:34.877Z,95.40
2017-08-21T15:53:04.612Z,99.90
2017-08-21T15:55:33.510Z,99.90
2017-08-21T15:58:01.817Z,99.90
2017-08-21T16:00:30.487Z,99.90
2017-08-21T16:02:58.863Z,99.90
2017-08-21T16:05:27.233Z,99.90
2017-08-21T16:07:56.463Z,99.90
2017-08-21T16:10:24.798Z,99.50
2017-08-21T16:12:53.121Z,99.80
2017-08-21T16:15:22.207Z,98.90
2017-08-21T16:17:51.188Z,98.60
2017-08-21T16:20:20.244Z,98.40
2017-08-21T16:22:49.503Z,98.10
2017-08-21T16:25:17.831Z,97.30
2017-08-21T16:27:47.744Z,97.40
2017-08-21T16:30:16.073Z,97.20
2017-08-21T16:32:44.373Z,96.30
2017-08-21T16:35:12.697Z,95.80
2017-08-21T16:37:41.009Z,96.30
2017-08-21T16:40:09.650Z,97.60
2017-08-21T16:42:37.931Z,98.40
2017-08-21T16:45:06.223Z,99.00
2017-08-21T16:47:34.828Z,99.30
2017-08-21T16:50:03.159Z,99.80
2017-08-21T16:52:31.863Z,99.90
2017-08-21T16:55:00.528Z,99.90
2017-08-21T16:57:29.327Z,99.80
2017-08-21T16:59:57.624Z,99.90
2017-08-21T17:02:26.210Z,99.90
2017-08-21T17:04:55.295Z,99.90
2017-08-21T17:07:23.700Z,99.90
2017-08-21T17:09:52.763Z,99.90
2017-08-21T17:12:21.041Z,99.90
2017-08-21T17:14:50.374Z,99.90
2017-08-21T17:17:18.672Z,99.90
2017-08-21T17:19:47.732Z,99.90
2017-08-21T17:22:16.342Z,99.90
2017-08-21T17:24:44.389Z,99.90
2017-08-21T17:27:12.469Z,99.90
2017-08-21T17:29:40.917Z,99.90
2017-08-21T17:32:09.389Z,99.90
2017-08-21T17:34:37.709Z,99.90
2017-08-21T17:37:06.342Z,99.90
2017-08-21T17:39:34.648Z,99.90
2017-08-21T17:42:02.934Z,99.90
2017-08-21T17:44:31.578Z,99.90
2017-08-21T17:46:59.904Z,99.90
2017-08-21T17:49:28.213Z,99.90
2017-08-21T17:51:56.817Z,99.90
2017-08-21T17:54:25.113Z,99.90
2017-08-21T17:56:53.966Z,99.90
2017-08-21T17:59:22.595Z,99.90
2017-08-21T18:01:51.142Z,99.90
2017-08-21T18:04:19.464Z,99.90
2017-08-21T18:06:48.063Z,99.90
2017-08-21T18:09:16.387Z,99.90
2017-08-21T18:11:45.419Z,99.90
2017-08-21T18:14:13.754Z,99.90
2017-08-21T18:16:42.063Z,99.90
2017-08-21T18:19:10.875Z,99.90
2017-08-21T18:21:40.236Z,99.90
2017-08-21T18:24:08.557Z,99.90
2017-08-21T18:26:37.892Z,99.90
2017-08-21T18:29:06.290Z,99.90
2017-08-21T18:31:34.670Z,99.90
2017-08-21T18:34:02.961Z,99.90
2017-08-21T18:36:32.257Z,99.90
2017-08-21T18:39:01.801Z,99.90
2017-08-21T18:41:31.208Z,99.90
2017-08-21T18:43:59.560Z,99.90
2017-08-21T18:46:28.153Z,99.90
2017-08-21T18:48:56.467Z,99.90
2017-08-21T18:51:25.666Z,99.90
2017-08-21T18:53:54.337Z,99.90
2017-08-21T18:56:23.377Z,99.90
2017-08-21T18:58:51.695Z,99.90
2017-08-21T19:01:20.420Z,99.90
2017-08-21T19:03:48.708Z,99.90
2017-08-21T19:06:17.002Z,99.90
2017-08-21T19:08:45.616Z,99.90
2017-08-21T19:11:13.970Z,99.90
2017-08-21T19:13:42.292Z,99.90
2017-08-21T19:16:10.578Z,99.90
2017-08-21T19:18:38.919Z,99.90
2017-08-21T19:21:07.536Z,99.90
2017-08-21T19:23:36.117Z,99.90
2017-08-21T19:26:04.437Z,99.90
2017-08-21T19:28:32.755Z,99.90
2017-08-21T19:31:01.669Z,99.90
2017-08-21T19:33:30.559Z,99.90
2017-08-21T19:35:59.806Z,99.90
2017-08-21T19:38:29.023Z,99.90
2017-08-21T19:40:57.706Z,99.90
2017-08-21T19:43:25.991Z,99.90
2017-08-21T19:45:54.295Z,99.90
2017-08-21T19:48:22.606Z,99.90
2017-08-21T19:50:50.912Z,99.90
2017-08-21T19:53:19.513Z,99.90
2017-08-21T19:55:47.813Z,99.90
2017-08-21T19:58:16.108Z,99.90
2017-08-21T20:00:45.148Z,99.90
2017-08-21T20:03:14.299Z,99.90
2017-08-21T20:05:42.616Z,99.90
2017-08-21T20:08:10.957Z,99.90
2017-08-21T20:10:40.092Z,99.90
2017-08-21T20:13:08.727Z,99.90
2017-08-21T20:15:37.025Z,99.90
2017-08-21T20:18:05.303Z,99.90
2017-08-21T20:20:33.995Z,99.90
2017-08-21T20:23:02.284Z,99.90
2017-08-21T20:25:32.346Z,99.90
2017-08-21T20:28:01.010Z,99.90
2017-08-21T20:30:29.316Z,99.90
2017-08-21T20:32:58.945Z,99.90
2017-08-21T20:35:27.585Z,99.90
2017-08-21T20:37:57.812Z,99.90
2017-08-21T20:40:26.911Z,99.90
2017-08-21T20:42:56.309Z,99.90
2017-08-21T20:45:24.661Z,99.90
2017-08-21T20:47:52.954Z,99.90
2017-08-21T20:50:21.546Z,99.90
2017-08-21T20:52:49.855Z,99.90
2017-08-21T20:55:18.151Z,99.90
2017-08-21T20:57:48.356Z,99.90
2017-08-21T21:00:16.656Z,99.90
2017-08-21T21:02:46.022Z,99.90
2017-08-21T21:05:14.610Z,99.90
2017-08-21T21:07:42.925Z,99.90
2017-08-21T21:10:12.534Z,99.90
2017-08-21T21:12:41.179Z,99.90
2017-08-21T21:15:09.493Z,99.90
2017-08-21T21:17:37.796Z,99.90
2017-08-21T21:20:06.450Z,99.90
2017-08-21T21:22:34.772Z,99.90
2017-08-21T21:25:04.199Z,99.90
2017-08-21T21:27:33.887Z,99.90
2017-08-21T21:30:02.185Z,99.90
2017-08-21T21:32:30.829Z,99.90
2017-08-21T21:34:59.607Z,99.90
2017-08-21T21:37:28.619Z,99.90
2017-08-21T21:39:56.935Z,99.90
2017-08-21T21:42:25.706Z,99.90
2017-08-21T21:44:54.685Z,99.90
2017-08-21T21:47:23.009Z,99.90
2017-08-21T21:49:51.658Z,99.90
2017-08-21T21:52:20.352Z,99.90
2017-08-21T21:54:48.648Z,99.90
2017-08-21T21:57:17.410Z,99.90
2017-08-21T21:59:46.059Z,99.90
2017-08-21T22:02:14.728Z,99.90
2017-08-21T22:04:43.042Z,99.90
2017-08-21T22:07:11.481Z,99.90
2017-08-21T22:09:39.814Z,99.90
2017-08-21T22:12:08.460Z,99.90
